Observation data for Tatum on 01/12/2018      Previous  Date  Next       Current Mesonet Observations  Soil Data  Daily Summary Page  Observations in Plain Language
KTAT 120600Z 18006KT M07/M11 A3027 RMK A01 T10731113  RH  074%=      5-min Rain = 0
KTAT 120605Z 18006KT M07/M11 A3027 RMK A01 T10731112  RH  075%=      5-min Rain = 0
KTAT 120610Z 17006KT M07/M11 A3027 RMK A01 T10711111  RH  074%=      5-min Rain = 0
KTAT 120615Z 17006KT M07/M11 A3027 RMK A01 T10721113  RH  073%=      5-min Rain = 0
KTAT 120620Z 17006KT M07/M11 A3027 RMK A01 T10721113  RH  073%=      5-min Rain = 0
KTAT 120625Z 17006KT M07/M11 A3026 RMK A01 T10701112  RH  073%=      5-min Rain = 0
KTAT 120630Z 17006KT M07/M11 A3026 RMK A01 T10671110  RH  073%=      5-min Rain = 0
KTAT 120635Z 18006KT M07/M11 A3026 RMK A01 T10651110  RH  072%=      5-min Rain = 0
KTAT 120640Z 18006KT M06/M11 A3026 RMK A01 T10631109  RH  071%=      5-min Rain = 0
KTAT 120645Z 18006KT M06/M11 A3026 RMK A01 T10621109  RH  070%=      5-min Rain = 0
KTAT 120650Z 19007KT M07/M11 A3026 RMK A01 T10661112  RH  071%=      5-min Rain = 0
KTAT 120655Z 19007KT M07/M11 A3026 RMK A01 T10661109  RH  073%=      5-min Rain = 0
KTAT 120700Z 19007KT M07/M11 A3026 RMK A01 T10681111  RH  073%=      5-min Rain = 0
KTAT 120705Z 19007KT M07/M11 A3025 RMK A01 T10701110  RH  074%=      5-min Rain = 0
KTAT 120710Z 19007KT M07/M11 A3025 RMK A01 T10711111  RH  074%=      5-min Rain = 0
KTAT 120715Z 20008KT M07/M11 A3025 RMK A01 T10721110  RH  075%=      5-min Rain = 0
KTAT 120720Z 20008KT M07/M11 A3025 RMK A01 T10731111  RH  075%=      5-min Rain = 0
KTAT 120725Z 21008KT M07/M11 A3024 RMK A01 T10701107  RH  076%=      5-min Rain = 0
KTAT 120730Z 20007KT M07/M11 A3024 RMK A01 T10671106  RH  075%=      5-min Rain = 0
KTAT 120735Z 21006KT M07/M11 A3024 RMK A01 T10671107  RH  074%=      5-min Rain = 0
KTAT 120740Z 21006KT M07/M11 A3024 RMK A01 T10671108  RH  074%=      5-min Rain = 0
KTAT 120745Z 21006KT M07/M11 A3024 RMK A01 T10691110  RH  074%=      5-min Rain = 0
KTAT 120750Z 20006KT M07/M11 A3024 RMK A01 T10691109  RH  074%=      5-min Rain = 0
KTAT 120755Z 20005KT M07/M11 A3024 RMK A01 T10681108  RH  074%=      5-min Rain = 0
KTAT 120800Z 20005KT M07/M11 A3025 RMK A01 T10671109  RH  073%=      5-min Rain = 0
KTAT 120805Z 21004KT M07/M11 A3025 RMK A01 T10691112  RH  073%=      5-min Rain = 0
KTAT 120810Z 19005KT M07/M11 A3025 RMK A01 T10721112  RH  074%=      5-min Rain = 0
KTAT 120815Z 18007KT M07/M11 A3025 RMK A01 T10691109  RH  074%=      5-min Rain = 0
KTAT 120820Z 19007KT M07/M11 A3025 RMK A01 T10671110  RH  073%=      5-min Rain = 0
KTAT 120825Z 18008KT M07/M11 A3025 RMK A01 T10671110  RH  072%=      5-min Rain = 0
KTAT 120830Z 18007KT M07/M11 A3024 RMK A01 T10681110  RH  073%=      5-min Rain = 0
KTAT 120835Z 18007KT M07/M11 A3024 RMK A01 T10691113  RH  072%=      5-min Rain = 0
KTAT 120840Z 18007KT M07/M11 A3025 RMK A01 T10681110  RH  073%=      5-min Rain = 0
KTAT 120845Z 19006KT M07/M11 A3025 RMK A01 T10681111  RH  072%=      5-min Rain = 0
KTAT 120850Z 18007KT M07/M11 A3024 RMK A01 T10691111  RH  073%=      5-min Rain = 0
KTAT 120855Z 18008KT M07/M11 A3024 RMK A01 T10711112  RH  073%=      5-min Rain = 0
KTAT 120900Z 17008KT M07/M11 A3024 RMK A01 T10671105  RH  075%=      5-min Rain = 0
KTAT 120905Z 18005KT M06/M10 A3024 RMK A01 T10601102  RH  073%=      5-min Rain = 0
KTAT 120910Z 18005KT M06/M11 A3023 RMK A01 T10581105  RH  070%=      5-min Rain = 0
KTAT 120915Z 19006KT M06/M11 A3023 RMK A01 T10591106  RH  070%=      5-min Rain = 0
KTAT 120920Z 18007KT M06/M11 A3023 RMK A01 T10591107  RH  070%=      5-min Rain = 0
KTAT 120925Z 18008KT M06/M11 A3022 RMK A01 T10611108  RH  070%=      5-min Rain = 0
KTAT 120930Z 18008KT M06/M11 A3022 RMK A01 T10621107  RH  072%=      5-min Rain = 0
KTAT 120935Z 17010KT M06/M10 A3021 RMK A01 T10621104  RH  073%=      5-min Rain = 0
KTAT 120940Z 18009KT M06/M10 A3021 RMK A01 T10581103  RH  071%=      5-min Rain = 0
KTAT 120945Z 18008KT M06/M10 A3021 RMK A01 T10581104  RH  071%=      5-min Rain = 0
KTAT 120950Z 19007KT M06/M11 A3021 RMK A01 T10601106  RH  071%=      5-min Rain = 0
KTAT 120955Z 18007KT M06/M11 A3021 RMK A01 T10631109  RH  071%=      5-min Rain = 0
KTAT 121000Z 18008KT M07/M11 A3021 RMK A01 T10651107  RH  073%=      5-min Rain = 0
KTAT 121005Z 18008KT M06/M11 A3021 RMK A01 T10591105  RH  071%=      5-min Rain = 0
KTAT 121010Z 17009KT M06/M10 A3021 RMK A01 T10581103  RH  071%=      5-min Rain = 0
KTAT 121015Z 18007KT M05/M10 A3021 RMK A01 T10521101  RH  070%=      5-min Rain = 0
KTAT 121020Z 18006KT M05/M10 A3021 RMK A01 T10511103  RH  068%=      5-min Rain = 0
KTAT 121025Z 18006KT M05/M11 A3021 RMK A01 T10541106  RH  068%=      5-min Rain = 0
KTAT 121030Z 19006KT M06/M11 A302 RMK A01 T10571108  RH  068%=      5-min Rain = 0
KTAT 121035Z 21004KT M06/M11 A302 RMK A01 T10601109  RH  069%=      5-min Rain = 0
KTAT 121040Z 18006KT M06/M11 A302 RMK A01 T10601108  RH  069%=      5-min Rain = 0
KTAT 121045Z 18007KT M06/M11 A302 RMK A01 T10611108  RH  070%=      5-min Rain = 0
KTAT 121050Z 18006KT M06/M11 A302 RMK A01 T10561105  RH  070%=      5-min Rain = 0
KTAT 121055Z 18005KT M05/M11 A302 RMK A01 T10531107  RH  067%=      5-min Rain = 0
KTAT 121100Z 18007KT M06/M11 A302 RMK A01 T10571110  RH  067%=      5-min Rain = 0
KTAT 121105Z 18006KT M06/M11 A302 RMK A01 T10621111  RH  069%=      5-min Rain = 0
KTAT 121110Z 18006KT M07/M11 A302 RMK A01 T10661112  RH  070%=      5-min Rain = 0
KTAT 121115Z 19005KT M07/M11 A302 RMK A01 T10681113  RH  071%=      5-min Rain = 0
KTAT 121120Z 20004KT M07/M11 A302 RMK A01 T10701114  RH  072%=      5-min Rain = 0
KTAT 121125Z 21003KT M07/M12 A302 RMK A01 T10741117  RH  072%=      5-min Rain = 0
KTAT 121130Z 19004KT M07/M11 A302 RMK A01 T10741113  RH  075%=      5-min Rain = 0
KTAT 121135Z 19005KT M07/M11 A3019 RMK A01 T10651109  RH  072%=      5-min Rain = 0
KTAT 121140Z 18006KT M06/M11 A3019 RMK A01 T10581107  RH  070%=      5-min Rain = 0
KTAT 121145Z 19006KT M06/M11 A3019 RMK A01 T10611111  RH  069%=      5-min Rain = 0
KTAT 121150Z 19007KT M07/M11 A3019 RMK A01 T10681114  RH  071%=      5-min Rain = 0
KTAT 121155Z 19007KT M07/M12 A3019 RMK A01 T10731116  RH  072%=      5-min Rain = 0
KTAT 121200Z 19007KT M07/M11 A3019 RMK A01 T10741114  RH  074%=      5-min Rain = 0
KTAT 121205Z 18008KT M07/M11 A3019 RMK A01 T10711111  RH  074%=      5-min Rain = 0
KTAT 121210Z 19007KT M07/M11 A3019 RMK A01 T10671108  RH  073%=      5-min Rain = 0
KTAT 121215Z 19007KT M07/M11 A3019 RMK A01 T10661110  RH  072%=      5-min Rain = 0
KTAT 121220Z 20008KT M07/M11 A3019 RMK A01 T10681112  RH  072%=      5-min Rain = 0
KTAT 121225Z 20007KT M07/M11 A3019 RMK A01 T10711113  RH  073%=      5-min Rain = 0
KTAT 121230Z 20007KT M08/M11 A302 RMK A01 T10751114  RH  074%=      5-min Rain = 0
KTAT 121235Z 19008KT M08/M11 A3019 RMK A01 T10761114  RH  075%=      5-min Rain = 0
KTAT 121240Z 19008KT M07/M11 A302 RMK A01 T10721110  RH  075%=      5-min Rain = 0
KTAT 121245Z 19007KT M07/M11 A302 RMK A01 T10671109  RH  073%=      5-min Rain = 0
KTAT 121250Z 19007KT M07/M11 A302 RMK A01 T10671110  RH  072%=      5-min Rain = 0
KTAT 121255Z 19007KT M07/M11 A302 RMK A01 T10691112  RH  072%=      5-min Rain = 0
KTAT 121300Z 19007KT M07/M11 A302 RMK A01 T10721114  RH  073%=      5-min Rain = 0
KTAT 121305Z 19008KT M08/M12 A302 RMK A01 T10771116  RH  074%=      5-min Rain = 0
KTAT 121310Z 19008KT M08/M12 A302 RMK A01 T10801116  RH  076%=      5-min Rain = 0
KTAT 121315Z 20008KT M08/M12 A302 RMK A01 T10801116  RH  076%=      5-min Rain = 0
KTAT 121320Z 20008KT M08/M11 A302 RMK A01 T10761113  RH  076%=      5-min Rain = 0
KTAT 121325Z 20007KT M07/M11 A3021 RMK A01 T10741114  RH  074%=      5-min Rain = 0
KTAT 121330Z 21005KT M07/M12 A3021 RMK A01 T10741115  RH  074%=      5-min Rain = 0
KTAT 121335Z 21005KT M07/M12 A3022 RMK A01 T10741116  RH  073%=      5-min Rain = 0
KTAT 121340Z 21006KT M08/M12 A3021 RMK A01 T10761117  RH  073%=      5-min Rain = 0
KTAT 121345Z 21006KT M08/M12 A3021 RMK A01 T10801118  RH  075%=      5-min Rain = 0
KTAT 121350Z 21006KT M08/M12 A3021 RMK A01 T10811118  RH  076%=      5-min Rain = 0
KTAT 121355Z 21007KT M08/M12 A3021 RMK A01 T10811118  RH  076%=      5-min Rain = 0
KTAT 121400Z 21008KT M08/M12 A3021 RMK A01 T10821118  RH  077%=      5-min Rain = 0
KTAT 121405Z 20009KT M08/M11 A302 RMK A01 T10811114  RH  078%=      5-min Rain = 0
KTAT 121410Z 21009KT M08/M11 A302 RMK A01 T10751110  RH  077%=      5-min Rain = 0
KTAT 121415Z 20008KT M07/M11 A302 RMK A01 T10681107  RH  075%=      5-min Rain = 0
KTAT 121420Z 20007KT M06/M10 A3021 RMK A01 T10591104  RH  072%=      5-min Rain = 0
KTAT 121425Z 20007KT M05/M10 A3021 RMK A01 T10501101  RH  069%=      5-min Rain = 0
KTAT 121430Z 20008KT M04/M10 A3021 RMK A01 T10411099  RH  065%=      5-min Rain = 0
KTAT 121435Z 20009KT M03/M10 A302 RMK A01 T10341099  RH  061%=      5-min Rain = 0
KTAT 121440Z 19011KT M03/M10 A302 RMK A01 T10281099  RH  059%=      5-min Rain = 0
KTAT 121445Z 20011KT M02/M10 A302 RMK A01 T10201099  RH  055%=      5-min Rain = 0
KTAT 121450Z 20011G16KT M01/M10 A302 RMK A01 T10141100  RH  053%=      5-min Rain = 0
KTAT 121455Z 20013KT M01/M10 A302 RMK A01 T10081101  RH  050%=      5-min Rain = 0
KTAT 121500Z 20014G19KT M00/M10 A302 RMK A01 T10021102  RH  047%=      5-min Rain = 0
KTAT 121505Z 20015KT 00/M10 A302 RMK A01 T00031104  RH  045%=      5-min Rain = 0
KTAT 121510Z 20014KT 01/M10 A302 RMK A01 T00071104  RH  044%=      5-min Rain = 0
KTAT 121515Z 20015KT 01/M11 A302 RMK A01 T00101106  RH  042%=      5-min Rain = 0
KTAT 121520Z 20015KT 01/M11 A302 RMK A01 T00131107  RH  041%=      5-min Rain = 0
KTAT 121525Z 20015KT 02/M11 A302 RMK A01 T00171107  RH  040%=      5-min Rain = 0
KTAT 121530Z 20017KT 02/M11 A302 RMK A01 T00211110  RH  038%=      5-min Rain = 0
KTAT 121535Z 19016KT 03/M11 A302 RMK A01 T00251111  RH  036%=      5-min Rain = 0
KTAT 121540Z 19016G21KT 03/M11 A302 RMK A01 T00301111  RH  035%=      5-min Rain = 0
KTAT 121545Z 20018KT 03/M11 A302 RMK A01 T00311113  RH  035%=      5-min Rain = 0
KTAT 121550Z 19017G22KT 03/M11 A3019 RMK A01 T00331111  RH  034%=      5-min Rain = 0
KTAT 121555Z 20017G23KT 04/M11 A3019 RMK A01 T00391110  RH  033%=      5-min Rain = 0
KTAT 121600Z 20018G23KT 04/M11 A3019 RMK A01 T00441108  RH  033%=      5-min Rain = 0
KTAT 121605Z 20019KT 05/M11 A3019 RMK A01 T00491107  RH  032%=      5-min Rain = 0
KTAT 121610Z 20018KT 05/M11 A3019 RMK A01 T00531106  RH  031%=      5-min Rain = 0
KTAT 121615Z 21017G22KT 05/M11 A3019 RMK A01 T00511106  RH  031%=      5-min Rain = 0
KTAT 121620Z 21018KT 05/M11 A3019 RMK A01 T00511105  RH  032%=      5-min Rain = 0
KTAT 121625Z 21017G22KT 06/M10 A3019 RMK A01 T00581101  RH  031%=      5-min Rain = 0
KTAT 121630Z 20015KT 07/M10 A3019 RMK A01 T00651099  RH  030%=      5-min Rain = 0
KTAT 121635Z 20016KT 07/M10 A3019 RMK A01 T00661100  RH  030%=      5-min Rain = 0
KTAT 121640Z 21015KT 06/M10 A302 RMK A01 T00641099  RH  031%=      5-min Rain = 0
KTAT 121645Z 21014G19KT 07/M10 A302 RMK A01 T00681096  RH  030%=      5-min Rain = 0
KTAT 121650Z 21015KT 07/M10 A302 RMK A01 T00671096  RH  031%=      5-min Rain = 0
KTAT 121655Z 21013KT 07/M10 A302 RMK A01 T00701095  RH  030%=      5-min Rain = 0
KTAT 121700Z 21012KT 07/M09 A302 RMK A01 T00741093  RH  030%=      5-min Rain = 0
KTAT 121705Z 20011KT 08/M09 A302 RMK A01 T00771092  RH  029%=      5-min Rain = 0
KTAT 121710Z 20011KT 08/M09 A302 RMK A01 T00791091  RH  029%=      5-min Rain = 0
KTAT 121715Z 20009KT 08/M09 A302 RMK A01 T00811090  RH  029%=      5-min Rain = 0
KTAT 121720Z 21010KT 09/M09 A302 RMK A01 T00851087  RH  029%=      5-min Rain = 0
KTAT 121725Z 21010KT 09/M09 A302 RMK A01 T00871086  RH  029%=      5-min Rain = 0
KTAT 121730Z 22009KT 10/M08 A3019 RMK A01 T00961082  RH  028%=      5-min Rain = 0
KTAT 121735Z 21010KT 10/M08 A3019 RMK A01 T00991081  RH  028%=      5-min Rain = 0
KTAT 121740Z 22010G15KT 10/M08 A3019 RMK A01 T00961080  RH  028%=      5-min Rain = 0
KTAT 121745Z 22010KT 10/M08 A3018 RMK A01 T00971078  RH  029%=      5-min Rain = 0
KTAT 121750Z 22010KT 10/M08 A3018 RMK A01 T00981077  RH  029%=      5-min Rain = 0
KTAT 121755Z 22010KT 10/M08 A3018 RMK A01 T01021076  RH  028%=      5-min Rain = 0
KTAT 121800Z 23011KT 10/M08 A3017 RMK A01 T01041075  RH  028%=      5-min Rain = 0
KTAT 121805Z 23010G15KT 11/M07 A3017 RMK A01 T01101073  RH  027%=      5-min Rain = 0
KTAT 121810Z 23009G14KT 11/M07 A3016 RMK A01 T01121072  RH  027%=      5-min Rain = 0
KTAT 121815Z 24009KT 12/M07 A3016 RMK A01 T01161071  RH  027%=      5-min Rain = 0
KTAT 121820Z 24008KT 12/M07 A3016 RMK A01 T01181070  RH  027%=      5-min Rain = 0
KTAT 121825Z 24008KT 12/M07 A3015 RMK A01 T01211070  RH  026%=      5-min Rain = 0
KTAT 121830Z 24009KT 13/M07 A3014 RMK A01 T01261070  RH  025%=      5-min Rain = 0
KTAT 121835Z 27008G13KT 13/M07 A3014 RMK A01 T01281070  RH  025%=      5-min Rain = 0
KTAT 121840Z 26009G15KT 13/M07 A3014 RMK A01 T01311070  RH  024%=      5-min Rain = 0
KTAT 121845Z 25008KT 13/M07 A3013 RMK A01 T01331069  RH  024%=      5-min Rain = 0
KTAT 121850Z 26009KT 14/M07 A3013 RMK A01 T01381071  RH  023%=      5-min Rain = 0
KTAT 121855Z 28010G15KT 14/M08 A3012 RMK A01 T01381075  RH  022%=      5-min Rain = 0
KTAT 121900Z 27010KT 14/M08 A3012 RMK A01 T01391075  RH  022%=      5-min Rain = 0
KTAT 121905Z 27011KT 14/M08 A3012 RMK A01 T01391075  RH  022%=      5-min Rain = 0
KTAT 121910Z 27011KT 14/M08 A3011 RMK A01 T01411075  RH  022%=      5-min Rain = 0
KTAT 121915Z 27012KT 15/M08 A3011 RMK A01 T01471075  RH  021%=      5-min Rain = 0
KTAT 121920Z 28011G16KT 14/M08 A3011 RMK A01 T01441076  RH  021%=      5-min Rain = 0
KTAT 121925Z 27011G16KT 14/M08 A301 RMK A01 T01441075  RH  022%=      5-min Rain = 0
KTAT 121930Z 25012G17KT 15/M08 A301 RMK A01 T01481075  RH  021%=      5-min Rain = 0
KTAT 121935Z 27014G20KT 15/M08 A3009 RMK A01 T01491078  RH  020%=      5-min Rain = 0
KTAT 121940Z 27016G21KT 15/M08 A3009 RMK A01 T01481078  RH  020%=      5-min Rain = 0
KTAT 121945Z 28018G23KT 15/M08 A3008 RMK A01 T01471081  RH  020%=      5-min Rain = 0
KTAT 121950Z 28017G24KT 15/M08 A3008 RMK A01 T01491083  RH  020%=      5-min Rain = 0
KTAT 121955Z 28018G24KT 15/M08 A3008 RMK A01 T01521084  RH  019%=      5-min Rain = 0
KTAT 122000Z 29018G23KT 15/M08 A3008 RMK A01 T01521083  RH  019%=      5-min Rain = 0
KTAT 122005Z 28017G22KT 15/M08 A3007 RMK A01 T01541081  RH  019%=      5-min Rain = 0
KTAT 122010Z 28018KT 16/M08 A3007 RMK A01 T01551079  RH  019%=      5-min Rain = 0
KTAT 122015Z 28019KT 15/M08 A3007 RMK A01 T01541080  RH  019%=      5-min Rain = 0
KTAT 122020Z 29018G23KT 16/M08 A3006 RMK A01 T01561081  RH  019%=      5-min Rain = 0
KTAT 122025Z 29019G27KT 16/M08 A3006 RMK A01 T01581082  RH  019%=      5-min Rain = 0
KTAT 122030Z 29021G27KT 16/M08 A3006 RMK A01 T01551081  RH  019%=      5-min Rain = 0
KTAT 122035Z 29021G27KT 16/M08 A3007 RMK A01 T01551081  RH  019%=      5-min Rain = 0
KTAT 122040Z 29022G27KT 16/M08 A3006 RMK A01 T01551082  RH  019%=      5-min Rain = 0
KTAT 122045Z 29020KT 16/M08 A3006 RMK A01 T01561081  RH  019%=      5-min Rain = 0
KTAT 122050Z 29020G27KT 16/M08 A3007 RMK A01 T01561081  RH  019%=      5-min Rain = 0
KTAT 122055Z 29019G24KT 16/M08 A3007 RMK A01 T01571080  RH  019%=      5-min Rain = 0
KTAT 122100Z 29018G24KT 16/M08 A3007 RMK A01 T01581078  RH  019%=      5-min Rain = 0
KTAT 122105Z 29017KT 16/M08 A3007 RMK A01 T01581077  RH  019%=      5-min Rain = 0
KTAT 122110Z 29017G23KT 16/M08 A3007 RMK A01 T01571076  RH  020%=      5-min Rain = 0
KTAT 122115Z 30017G23KT 16/M08 A3007 RMK A01 T01591075  RH  020%=      5-min Rain = 0
KTAT 122120Z 30022G28KT 16/M08 A3006 RMK A01 T01591078  RH  019%=      5-min Rain = 0
KTAT 122125Z 29016G22KT 16/M07 A3007 RMK A01 T01581073  RH  020%=      5-min Rain = 0
KTAT 122130Z 30016G21KT 16/M07 A3006 RMK A01 T01601074  RH  019%=      5-min Rain = 0
KTAT 122135Z 29017G24KT 16/M07 A3006 RMK A01 T01621073  RH  019%=      5-min Rain = 0
KTAT 122140Z 29020G26KT 16/M08 A3006 RMK A01 T01611075  RH  019%=      5-min Rain = 0
KTAT 122145Z 29015G21KT 17/M08 A3006 RMK A01 T01651075  RH  019%=      5-min Rain = 0
KTAT 122150Z 30019G24KT 17/M08 A3006 RMK A01 T01661079  RH  018%=      5-min Rain = 0
KTAT 122155Z 29019G25KT 16/M08 A3006 RMK A01 T01631082  RH  018%=      5-min Rain = 0
KTAT 122200Z 29017G22KT 17/M08 A3006 RMK A01 T01651081  RH  018%=      5-min Rain = 0
KTAT 122205Z 29019KT 16/M08 A3006 RMK A01 T01641079  RH  018%=      5-min Rain = 0
KTAT 122210Z 29018G25KT 16/M08 A3006 RMK A01 T01641079  RH  018%=      5-min Rain = 0
KTAT 122215Z 28016G21KT 17/M08 A3006 RMK A01 T01651080  RH  018%=      5-min Rain = 0
KTAT 122220Z 29016G21KT 16/M08 A3006 RMK A01 T01631080  RH  018%=      5-min Rain = 0
KTAT 122225Z 28015G20KT 16/M08 A3006 RMK A01 T01631082  RH  018%=      5-min Rain = 0
KTAT 122230Z 29015KT 16/M08 A3007 RMK A01 T01621080  RH  018%=      5-min Rain = 0
KTAT 122235Z 30014G19KT 16/M08 A3007 RMK A01 T01631079  RH  018%=      5-min Rain = 0
KTAT 122240Z 29013KT 16/M08 A3007 RMK A01 T01621080  RH  018%=      5-min Rain = 0
KTAT 122245Z 29013KT 16/M08 A3007 RMK A01 T01611081  RH  018%=      5-min Rain = 0
KTAT 122250Z 30012KT 16/M08 A3007 RMK A01 T01601080  RH  019%=      5-min Rain = 0
KTAT 122255Z 29013KT 16/M08 A3008 RMK A01 T01591080  RH  019%=      5-min Rain = 0
KTAT 122300Z 29012KT 16/M08 A3008 RMK A01 T01571078  RH  019%=      5-min Rain = 0
KTAT 122305Z 29012KT 16/M08 A3008 RMK A01 T01571077  RH  019%=      5-min Rain = 0
KTAT 122310Z 29012KT 16/M08 A3008 RMK A01 T01561077  RH  020%=      5-min Rain = 0
KTAT 122315Z 28011KT 16/M08 A3008 RMK A01 T01551076  RH  020%=      5-min Rain = 0
KTAT 122320Z 28010KT 15/M08 A3008 RMK A01 T01531075  RH  020%=      5-min Rain = 0
KTAT 122325Z 29008KT 15/M07 A3009 RMK A01 T01531074  RH  020%=      5-min Rain = 0
KTAT 122330Z 29006KT 15/M07 A3009 RMK A01 T01531074  RH  020%=      5-min Rain = 0
KTAT 122335Z 30005KT 15/M07 A3009 RMK A01 T01511074  RH  021%=      5-min Rain = 0
KTAT 122340Z 30005KT 15/M08 A3009 RMK A01 T01481075  RH  021%=      5-min Rain = 0
KTAT 122345Z 30005KT 14/M08 A3009 RMK A01 T01431075  RH  022%=      5-min Rain = 0
KTAT 122350Z 29005KT 14/M08 A3009 RMK A01 T01351075  RH  023%=      5-min Rain = 0
KTAT 122355Z 29006KT 13/M08 A301 RMK A01 T01261076  RH  024%=      5-min Rain = 0
KTAT 130000Z 28005KT 11/M08 A301 RMK A01 T01141079  RH  025%=      5-min Rain = 0
KTAT 130005Z 28005KT 10/M08 A301 RMK A01 T01031080  RH  027%=      5-min Rain = 0
KTAT 130010Z 29005KT 10/M08 A301 RMK A01 T00981080  RH  028%=      5-min Rain = 0
KTAT 130015Z 29005KT 09/M08 A301 RMK A01 T00911082  RH  029%=      5-min Rain = 0
KTAT 130020Z 28006KT 09/M08 A3011 RMK A01 T00851083  RH  030%=      5-min Rain = 0
KTAT 130025Z 28006KT 07/M09 A3011 RMK A01 T00741085  RH  032%=      5-min Rain = 0
KTAT 130030Z 26007KT 06/M09 A3011 RMK A01 T00641086  RH  034%=      5-min Rain = 0
KTAT 130035Z 26007KT 06/M09 A3012 RMK A01 T00621085  RH  035%=      5-min Rain = 0
KTAT 130040Z 27008KT 06/M08 A3012 RMK A01 T00601083  RH  035%=      5-min Rain = 0
KTAT 130045Z 28008KT 06/M08 A3013 RMK A01 T00581083  RH  036%=      5-min Rain = 0
KTAT 130050Z 28008KT 06/M08 A3013 RMK A01 T00571081  RH  037%=      5-min Rain = 0
KTAT 130055Z 27008KT 06/M08 A3013 RMK A01 T00551078  RH  038%=      5-min Rain = 0
KTAT 130100Z 27007KT 05/M08 A3014 RMK A01 T00521078  RH  039%=      5-min Rain = 0
KTAT 130105Z 27009KT 05/M08 A3014 RMK A01 T00501079  RH  039%=      5-min Rain = 0
KTAT 130110Z 27010KT 05/M08 A3014 RMK A01 T00481078  RH  040%=      5-min Rain = 0
KTAT 130115Z 26011KT 05/M08 A3014 RMK A01 T00451077  RH  041%=      5-min Rain = 0
KTAT 130120Z 27011KT 05/M08 A3014 RMK A01 T00451076  RH  042%=      5-min Rain = 0
KTAT 130125Z 25010KT 05/M08 A3015 RMK A01 T00471077  RH  041%=      5-min Rain = 0
KTAT 130130Z 25010KT 04/M08 A3015 RMK A01 T00351082  RH  043%=      5-min Rain = 0
KTAT 130135Z 25011KT 03/M08 A3016 RMK A01 T00291080  RH  045%=      5-min Rain = 0
KTAT 130140Z 25009KT 03/M08 A3016 RMK A01 T00341077  RH  044%=      5-min Rain = 0
KTAT 130145Z 24009KT 03/M08 A3016 RMK A01 T00341078  RH  044%=      5-min Rain = 0
KTAT 130150Z 25007KT 03/M08 A3017 RMK A01 T00271080  RH  046%=      5-min Rain = 0
KTAT 130155Z 24008KT 02/M08 A3017 RMK A01 T00231081  RH  047%=      5-min Rain = 0
KTAT 130200Z 24008KT 02/M08 A3017 RMK A01 T00171083  RH  048%=      5-min Rain = 0
KTAT 130205Z 24008KT 01/M08 A3017 RMK A01 T00111084  RH  050%=      5-min Rain = 0
KTAT 130210Z 24007KT 01/M09 A3017 RMK A01 T00071085  RH  051%=      5-min Rain = 0
KTAT 130215Z 23008KT 00/M09 A3017 RMK A01 T00031085  RH  052%=      5-min Rain = 0
KTAT 130220Z 22007KT 01/M08 A3017 RMK A01 T00051082  RH  053%=      5-min Rain = 0
KTAT 130225Z 23008KT 01/M08 A3017 RMK A01 T00101079  RH  052%=      5-min Rain = 0
KTAT 130230Z 22007KT 02/M08 A3017 RMK A01 T00151078  RH  051%=      5-min Rain = 0
KTAT 130235Z 23007KT 01/M08 A3018 RMK A01 T00131081  RH  050%=      5-min Rain = 0
KTAT 130240Z 23008KT 01/M08 A3018 RMK A01 T00121079  RH  051%=      5-min Rain = 0
KTAT 130245Z 22008KT 01/M08 A3018 RMK A01 T00131079  RH  051%=      5-min Rain = 0
KTAT 130250Z 21007KT 01/M08 A3018 RMK A01 T00131080  RH  051%=      5-min Rain = 0
KTAT 130255Z 22005KT 01/M08 A3018 RMK A01 T00121080  RH  051%=      5-min Rain = 0
KTAT 130300Z 09002KT 00/M09 A3019 RMK A01 T00041085  RH  052%=      5-min Rain = 0
KTAT 130305Z 03003KT 01/M08 A3019 RMK A01 T00141079  RH  051%=      5-min Rain = 0
KTAT 130310Z 06005KT 02/M08 A302 RMK A01 T00201081  RH  048%=      5-min Rain = 0
KTAT 130315Z 07010KT 02/M08 A302 RMK A01 T00211083  RH  047%=      5-min Rain = 0
KTAT 130320Z 08010KT 02/M09 A3021 RMK A01 T00191086  RH  046%=      5-min Rain = 0
KTAT 130325Z 09008KT 02/M09 A3022 RMK A01 T00191088  RH  045%=      5-min Rain = 0
KTAT 130330Z 10007KT 02/M09 A3022 RMK A01 T00151091  RH  046%=      5-min Rain = 0
KTAT 130335Z 10007KT 01/M09 A3022 RMK A01 T00111092  RH  047%=      5-min Rain = 0
KTAT 130340Z 11007KT 01/M09 A3022 RMK A01 T00071093  RH  048%=      5-min Rain = 0
KTAT 130345Z 12006KT 00/M09 A3022 RMK A01 T00041093  RH  049%=      5-min Rain = 0
KTAT 130350Z 12007KT 01/M09 A3022 RMK A01 T00051093  RH  048%=      5-min Rain = 0
KTAT 130355Z 11010KT 00/M09 A3023 RMK A01 T00021092  RH  050%=      5-min Rain = 0
KTAT 130400Z 07005KT 01/M09 A3023 RMK A01 T00051091  RH  049%=      5-min Rain = 0
KTAT 130405Z 07006KT 01/M09 A3024 RMK A01 T00071092  RH  048%=      5-min Rain = 0
KTAT 130410Z 10010KT 01/M09 A3024 RMK A01 T00111090  RH  047%=      5-min Rain = 0
KTAT 130415Z 12009KT 02/M09 A3024 RMK A01 T00161091  RH  045%=      5-min Rain = 0
KTAT 130420Z 11012KT 02/M09 A3024 RMK A01 T00231091  RH  043%=      5-min Rain = 0
KTAT 130425Z 07013KT 02/M09 A3027 RMK A01 T00221094  RH  042%=      5-min Rain = 0
KTAT 130430Z 08011KT 02/M10 A3027 RMK A01 T00161095  RH  044%=      5-min Rain = 0
KTAT 130435Z 07012KT 01/M10 A3028 RMK A01 T00141096  RH  044%=      5-min Rain = 0
KTAT 130440Z 07011KT 01/M10 A3028 RMK A01 T00131097  RH  044%=      5-min Rain = 0
KTAT 130445Z 07011KT 01/M10 A3029 RMK A01 T00131097  RH  044%=      5-min Rain = 0
KTAT 130450Z 06011KT 02/M10 A303 RMK A01 T00151098  RH  043%=      5-min Rain = 0
KTAT 130455Z 07012KT 02/M10 A303 RMK A01 T00151100  RH  042%=      5-min Rain = 0
KTAT 130500Z 07012KT 02/M10 A303 RMK A01 T00161103  RH  041%=      5-min Rain = 0
KTAT 130505Z 07012G17KT 02/M11 A3031 RMK A01 T00161106  RH  041%=      5-min Rain = 0
KTAT 130510Z 07012KT 02/M11 A3031 RMK A01 T00151107  RH  040%=      5-min Rain = 0
KTAT 130515Z 07014G19KT 01/M11 A3031 RMK A01 T00131108  RH  041%=      5-min Rain = 0
KTAT 130520Z 07013KT 01/M11 A3031 RMK A01 T00121109  RH  041%=      5-min Rain = 0
KTAT 130525Z 06012KT 01/M11 A3032 RMK A01 T00081110  RH  041%=      5-min Rain = 0
KTAT 130530Z 05014G19KT 01/M11 A3033 RMK A01 T00061114  RH  041%=      5-min Rain = 0
KTAT 130535Z 06015KT 01/M12 A3034 RMK A01 T00051122  RH  039%=      5-min Rain = 0
KTAT 130540Z 07013KT 00/M12 A3034 RMK A01 T00021124  RH  039%=      5-min Rain = 0
KTAT 130545Z 06010KT 00/12 A3035 RMK A01 T00-00-124  RH  039%=      5-min Rain = 0
KTAT 130550Z 07013G19KT M00/M13 A3035 RMK A01 T10021125  RH  039%=      5-min Rain = 0
KTAT 130555Z 06012KT M00/M13 A3035 RMK A01 T10021127  RH  039%=      5-min Rain = 0

Page generated in 0.0397 seconds.